sensor_id;sensor_type;location;lat;lon;timestamp;pressure;altitude;pressure_sealevel;temperature;humidity
22018;BME280;11173;51.050;7.108;2022-08-25T00:04:34;99639.50;;;22.39;36.22
22018;BME280;11173;51.050;7.108;2022-08-25T00:09:54;99643.84;;;22.34;36.27
22018;BME280;11173;51.050;7.108;2022-08-25T00:15:15;99636.50;;;22.22;36.64
22018;BME280;11173;51.050;7.108;2022-08-25T00:20:36;99634.94;;;22.21;36.97
22018;BME280;11173;51.050;7.108;2022-08-25T00:25:57;99638.22;;;22.14;37.03
22018;BME280;11173;51.050;7.108;2022-08-25T00:31:19;99637.88;;;22.06;37.69
22018;BME280;11173;51.050;7.108;2022-08-25T00:36:41;99637.56;;;21.98;37.48
22018;BME280;11173;51.050;7.108;2022-08-25T00:42:02;99638.56;;;21.95;37.52
22018;BME280;11173;51.050;7.108;2022-08-25T00:47:24;99634.94;;;21.95;37.88
22018;BME280;11173;51.050;7.108;2022-08-25T00:52:47;99644.72;;;21.94;38.05
22018;BME280;11173;51.050;7.108;2022-08-25T00:58:15;99635.94;;;21.92;38.21
22018;BME280;11173;51.050;7.108;2022-08-25T01:03:38;99649.00;;;21.83;38.74
22018;BME280;11173;51.050;7.108;2022-08-25T01:08:58;99652.06;;;21.80;38.56
22018;BME280;11173;51.050;7.108;2022-08-25T01:14:20;99633.16;;;21.71;38.18
22018;BME280;11173;51.050;7.108;2022-08-25T01:19:42;99634.94;;;21.69;38.58
22018;BME280;11173;51.050;7.108;2022-08-25T01:25:09;99645.72;;;21.64;38.81
22018;BME280;11173;51.050;7.108;2022-08-25T01:30:36;99640.47;;;21.57;39.13
22018;BME280;11173;51.050;7.108;2022-08-25T01:35:57;99639.41;;;21.55;38.71
22018;BME280;11173;51.050;7.108;2022-08-25T01:46:53;99641.44;;;21.34;39.29
22018;BME280;11173;51.050;7.108;2022-08-25T01:52:19;99645.41;;;21.21;39.46
22018;BME280;11173;51.050;7.108;2022-08-25T01:57:40;99639.31;;;21.08;39.79
22018;BME280;11173;51.050;7.108;2022-08-25T02:03:01;99634.47;;;20.94;40.20
22018;BME280;11173;51.050;7.108;2022-08-25T02:08:22;99643.88;;;20.85;40.57
22018;BME280;11173;51.050;7.108;2022-08-25T02:13:43;99640.00;;;20.82;40.67
22018;BME280;11173;51.050;7.108;2022-08-25T02:19:07;99637.25;;;20.73;40.09
22018;BME280;11173;51.050;7.108;2022-08-25T02:24:28;99635.72;;;20.57;40.03
22018;BME280;11173;51.050;7.108;2022-08-25T02:29:48;99654.47;;;20.55;40.10
22018;BME280;11173;51.050;7.108;2022-08-25T02:35:10;99654.47;;;20.40;39.80
22018;BME280;11173;51.050;7.108;2022-08-25T02:40:31;99645.91;;;20.19;40.27
22018;BME280;11173;51.050;7.108;2022-08-25T02:45:52;99642.28;;;20.04;40.48
22018;BME280;11173;51.050;7.108;2022-08-25T02:51:13;99651.50;;;19.90;40.79
22018;BME280;11173;51.050;7.108;2022-08-25T02:56:34;99636.69;;;19.80;41.67
22018;BME280;11173;51.050;7.108;2022-08-25T03:01:55;99634.53;;;19.75;43.44
22018;BME280;11173;51.050;7.108;2022-08-25T03:07:16;99626.63;;;19.64;43.99
22018;BME280;11173;51.050;7.108;2022-08-25T03:12:37;99619.13;;;19.76;44.07
22018;BME280;11173;51.050;7.108;2022-08-25T03:18:00;99613.47;;;19.76;44.46
22018;BME280;11173;51.050;7.108;2022-08-25T03:23:02;99611.72;;;19.78;45.31
22018;BME280;11173;51.050;7.108;2022-08-25T03:28:05;99610.00;;;19.81;45.08
22018;BME280;11173;51.050;7.108;2022-08-25T03:33:05;99598.88;;;19.77;45.04
22018;BME280;11173;51.050;7.108;2022-08-25T03:38:06;99608.03;;;19.87;44.79
22018;BME280;11173;51.050;7.108;2022-08-25T03:43:06;99606.28;;;19.90;45.98
22018;BME280;11173;51.050;7.108;2022-08-25T03:48:07;99607.34;;;19.92;45.50
22018;BME280;11173;51.050;7.108;2022-08-25T03:53:08;99603.75;;;19.92;45.68
22018;BME280;11173;51.050;7.108;2022-08-25T03:58:08;99605.69;;;19.85;46.75
22018;BME280;11173;51.050;7.108;2022-08-25T04:03:09;99599.94;;;19.80;46.23
22018;BME280;11173;51.050;7.108;2022-08-25T04:08:10;99576.25;;;19.77;47.01
22018;BME280;11173;51.050;7.108;2022-08-25T04:13:10;99568.25;;;19.76;47.29
22018;BME280;11173;51.050;7.108;2022-08-25T04:18:11;99569.84;;;19.77;47.46
22018;BME280;11173;51.050;7.108;2022-08-25T04:23:12;99570.31;;;19.75;47.72
22018;BME280;11173;51.050;7.108;2022-08-25T04:28:12;99577.03;;;19.78;46.96
22018;BME280;11173;51.050;7.108;2022-08-25T04:33:13;99576.75;;;19.76;47.68
22018;BME280;11173;51.050;7.108;2022-08-25T04:38:13;99568.44;;;19.72;47.44
22018;BME280;11173;51.050;7.108;2022-08-25T04:43:14;99574.91;;;19.73;47.98
22018;BME280;11173;51.050;7.108;2022-08-25T04:48:14;99578.03;;;19.75;48.01
22018;BME280;11173;51.050;7.108;2022-08-25T04:53:15;99575.38;;;19.71;48.10
22018;BME280;11173;51.050;7.108;2022-08-25T04:58:15;99575.69;;;19.73;48.27
22018;BME280;11173;51.050;7.108;2022-08-25T05:03:16;99573.22;;;19.66;48.48
22018;BME280;11173;51.050;7.108;2022-08-25T05:08:16;99575.84;;;19.70;49.05
22018;BME280;11173;51.050;7.108;2022-08-25T05:13:16;99562.69;;;19.66;48.85
22018;BME280;11173;51.050;7.108;2022-08-25T05:18:18;99565.81;;;19.68;48.96
22018;BME280;11173;51.050;7.108;2022-08-25T05:23:20;99568.44;;;19.72;49.02
22018;BME280;11173;51.050;7.108;2022-08-25T05:28:21;99561.84;;;19.75;49.36
22018;BME280;11173;51.050;7.108;2022-08-25T05:33:21;99559.13;;;19.81;49.26
22018;BME280;11173;51.050;7.108;2022-08-25T05:38:22;99552.28;;;19.87;50.06
22018;BME280;11173;51.050;7.108;2022-08-25T05:43:22;99540.19;;;20.17;48.69
22018;BME280;11173;51.050;7.108;2022-08-25T05:48:24;99547.28;;;20.62;48.39
22018;BME280;11173;51.050;7.108;2022-08-25T05:53:26;99546.91;;;21.11;47.88
22018;BME280;11173;51.050;7.108;2022-08-25T05:58:27;99553.66;;;21.60;46.58
22018;BME280;11173;51.050;7.108;2022-08-25T06:03:28;99553.03;;;22.02;45.72
22018;BME280;11173;51.050;7.108;2022-08-25T06:08:29;99547.41;;;22.46;45.33
22018;BME280;11173;51.050;7.108;2022-08-25T06:13:32;99552.03;;;22.80;45.02
22018;BME280;11173;51.050;7.108;2022-08-25T06:18:33;99545.19;;;23.10;44.29
22018;BME280;11173;51.050;7.108;2022-08-25T06:23:33;99550.16;;;23.32;43.53
22018;BME280;11173;51.050;7.108;2022-08-25T06:28:35;99553.56;;;23.47;43.14
22018;BME280;11173;51.050;7.108;2022-08-25T06:33:36;99557.72;;;23.46;43.07
22018;BME280;11173;51.050;7.108;2022-08-25T06:38:36;99559.50;;;23.38;42.99
22018;BME280;11173;51.050;7.108;2022-08-25T06:43:38;99564.38;;;23.26;43.06
22018;BME280;11173;51.050;7.108;2022-08-25T06:48:39;99556.81;;;23.12;43.94
22018;BME280;11173;51.050;7.108;2022-08-25T06:53:41;99571.56;;;23.10;44.12
22018;BME280;11173;51.050;7.108;2022-08-25T06:58:42;99578.78;;;23.11;44.23
22018;BME280;11173;51.050;7.108;2022-08-25T07:03:43;99576.97;;;23.08;44.49
22018;BME280;11173;51.050;7.108;2022-08-25T07:08:44;99576.97;;;23.14;44.27
22018;BME280;11173;51.050;7.108;2022-08-25T07:13:44;99580.88;;;23.22;43.93
22018;BME280;11173;51.050;7.108;2022-08-25T07:18:46;99565.16;;;23.27;44.21
22018;BME280;11173;51.050;7.108;2022-08-25T07:23:46;99565.16;;;23.38;43.98
22018;BME280;11173;51.050;7.108;2022-08-25T07:28:47;99557.44;;;23.50;43.85
22018;BME280;11173;51.050;7.108;2022-08-25T07:33:47;99563.41;;;23.57;43.58
22018;BME280;11173;51.050;7.108;2022-08-25T07:39:07;99565.78;;;23.65;43.88
22018;BME280;11173;51.050;7.108;2022-08-25T07:44:09;99564.53;;;23.77;43.54
22018;BME280;11173;51.050;7.108;2022-08-25T07:49:10;99569.97;;;23.86;43.78
22018;BME280;11173;51.050;7.108;2022-08-25T07:54:10;99570.72;;;23.98;43.40
22018;BME280;11173;51.050;7.108;2022-08-25T07:59:10;99564.03;;;24.01;43.48
22018;BME280;11173;51.050;7.108;2022-08-25T08:04:11;99573.84;;;24.17;43.38
22018;BME280;11173;51.050;7.108;2022-08-25T08:09:11;99571.78;;;24.23;43.21
22018;BME280;11173;51.050;7.108;2022-08-25T08:14:12;99567.41;;;24.28;43.24
22018;BME280;11173;51.050;7.108;2022-08-25T08:19:13;99552.41;;;24.27;43.40
22018;BME280;11173;51.050;7.108;2022-08-25T08:24:13;99566.34;;;24.48;42.89
22018;BME280;11173;51.050;7.108;2022-08-25T08:29:14;99549.22;;;24.59;43.09
22018;BME280;11173;51.050;7.108;2022-08-25T08:34:15;99548.72;;;24.66;42.97
22018;BME280;11173;51.050;7.108;2022-08-25T08:39:16;99540.13;;;24.72;42.78
22018;BME280;11173;51.050;7.108;2022-08-25T08:44:27;99536.47;;;24.83;42.92
22018;BME280;11173;51.050;7.108;2022-08-25T08:55:30;99527.13;;;24.99;42.76
22018;BME280;11173;51.050;7.108;2022-08-25T09:00:32;99531.22;;;25.09;42.60
22018;BME280;11173;51.050;7.108;2022-08-25T09:05:47;99529.09;;;25.15;42.15
22018;BME280;11173;51.050;7.108;2022-08-25T09:11:09;99520.47;;;25.32;42.15
22018;BME280;11173;51.050;7.108;2022-08-25T09:27:12;99514.84;;;25.63;42.11
22018;BME280;11173;51.050;7.108;2022-08-25T09:32:16;99511.38;;;25.75;41.76
22018;BME280;11173;51.050;7.108;2022-08-25T09:37:17;99492.69;;;25.80;42.01
22018;BME280;11173;51.050;7.108;2022-08-25T09:42:19;99494.94;;;25.87;41.48
22018;BME280;11173;51.050;7.108;2022-08-25T09:47:22;99493.53;;;25.99;41.56
22018;BME280;11173;51.050;7.108;2022-08-25T10:02:46;99461.97;;;26.22;40.80
22018;BME280;11173;51.050;7.108;2022-08-25T10:13:38;99451.72;;;26.32;39.85
22018;BME280;11173;51.050;7.108;2022-08-25T10:18:39;99458.16;;;26.38;40.72
22018;BME280;11173;51.050;7.108;2022-08-25T10:23:49;99452.84;;;26.48;40.18
22018;BME280;11173;51.050;7.108;2022-08-25T10:29:06;99449.59;;;26.57;40.40
22018;BME280;11173;51.050;7.108;2022-08-25T10:39:45;99439.38;;;26.68;40.38
22018;BME280;11173;51.050;7.108;2022-08-25T10:56:03;99419.25;;;26.98;38.91
22018;BME280;11173;51.050;7.108;2022-08-25T11:01:09;99411.81;;;27.08;39.13
22018;BME280;11173;51.050;7.108;2022-08-25T11:06:45;99417.09;;;27.17;38.80
22018;BME280;11173;51.050;7.108;2022-08-25T11:11:55;99423.31;;;27.22;37.03
22018;BME280;11173;51.050;7.108;2022-08-25T11:17:03;99402.41;;;27.27;38.78
22018;BME280;11173;51.050;7.108;2022-08-25T11:27:15;99400.41;;;27.41;37.79
22018;BME280;11173;51.050;7.108;2022-08-25T11:32:19;99403.19;;;27.46;36.62
22018;BME280;11173;51.050;7.108;2022-08-25T11:37:23;99401.22;;;27.54;36.09
22018;BME280;11173;51.050;7.108;2022-08-25T11:53:29;99382.03;;;27.82;37.56
22018;BME280;11173;51.050;7.108;2022-08-25T11:58:31;99380.63;;;27.88;36.76
22018;BME280;11173;51.050;7.108;2022-08-25T12:29:45;99343.25;;;28.47;35.40
22018;BME280;11173;51.050;7.108;2022-08-25T12:35:09;99344.16;;;28.55;35.98
22018;BME280;11173;51.050;7.108;2022-08-25T12:45:53;99334.69;;;28.82;36.03
22018;BME280;11173;51.050;7.108;2022-08-25T12:51:15;99325.16;;;28.87;34.29
22018;BME280;11173;51.050;7.108;2022-08-25T13:17:42;99304.66;;;29.17;33.25
22018;BME280;11173;51.050;7.108;2022-08-25T13:22:46;99301.44;;;29.21;32.55
22018;BME280;11173;51.050;7.108;2022-08-25T13:27:54;99286.94;;;29.26;33.65
22018;BME280;11173;51.050;7.108;2022-08-25T13:32:56;99285.84;;;29.29;33.26
22018;BME280;11173;51.050;7.108;2022-08-25T13:38:12;99283.00;;;29.37;31.83
22018;BME280;11173;51.050;7.108;2022-08-25T13:43:13;99284.22;;;29.42;31.61
22018;BME280;11173;51.050;7.108;2022-08-25T13:48:40;99283.31;;;29.54;31.56
22018;BME280;11173;51.050;7.108;2022-08-25T13:53:47;99279.44;;;29.73;32.82
22018;BME280;11173;51.050;7.108;2022-08-25T13:58:47;99278.75;;;29.80;31.98
22018;BME280;11173;51.050;7.108;2022-08-25T14:03:48;99271.84;;;29.76;32.37
22018;BME280;11173;51.050;7.108;2022-08-25T14:14:08;99274.66;;;29.68;29.66
22018;BME280;11173;51.050;7.108;2022-08-25T14:19:13;99263.47;;;29.57;31.89
22018;BME280;11173;51.050;7.108;2022-08-25T14:24:20;99251.50;;;29.45;29.00
22018;BME280;11173;51.050;7.108;2022-08-25T14:29:21;99263.19;;;29.47;30.90
22018;BME280;11173;51.050;7.108;2022-08-25T14:34:29;99253.34;;;29.56;31.87
22018;BME280;11173;51.050;7.108;2022-08-25T14:39:32;99257.03;;;29.64;32.09
22018;BME280;11173;51.050;7.108;2022-08-25T14:44:32;99249.44;;;29.74;32.25
22018;BME280;11173;51.050;7.108;2022-08-25T14:49:36;99241.63;;;29.82;32.55
22018;BME280;11173;51.050;7.108;2022-08-25T14:54:37;99238.03;;;29.89;31.50
22018;BME280;11173;51.050;7.108;2022-08-25T14:59:38;99240.91;;;29.89;30.41
22018;BME280;11173;51.050;7.108;2022-08-25T15:04:38;99234.56;;;29.91;31.00
22018;BME280;11173;51.050;7.108;2022-08-25T15:09:39;99229.56;;;29.84;28.42
22018;BME280;11173;51.050;7.108;2022-08-25T15:14:39;99219.97;;;29.81;30.86
22018;BME280;11173;51.050;7.108;2022-08-25T15:19:40;99219.16;;;29.73;30.86
22018;BME280;11173;51.050;7.108;2022-08-25T15:24:40;99217.75;;;29.59;30.24
22018;BME280;11173;51.050;7.108;2022-08-25T15:29:41;99217.88;;;29.53;29.65
22018;BME280;11173;51.050;7.108;2022-08-25T15:34:41;99197.03;;;29.52;30.66
22018;BME280;11173;51.050;7.108;2022-08-25T15:39:43;99207.84;;;29.60;31.21
22018;BME280;11173;51.050;7.108;2022-08-25T15:44:44;99205.91;;;29.62;31.41
22018;BME280;11173;51.050;7.108;2022-08-25T15:49:45;99203.25;;;29.64;31.35
22018;BME280;11173;51.050;7.108;2022-08-25T15:54:45;99200.53;;;29.59;31.06
22018;BME280;11173;51.050;7.108;2022-08-25T15:59:46;99198.06;;;29.63;31.08
22018;BME280;11173;51.050;7.108;2022-08-25T16:04:46;99199.44;;;29.62;30.70
22018;BME280;11173;51.050;7.108;2022-08-25T16:09:47;99196.75;;;29.64;31.08
22018;BME280;11173;51.050;7.108;2022-08-25T16:14:48;99203.31;;;29.72;31.36
22018;BME280;11173;51.050;7.108;2022-08-25T16:19:48;99194.53;;;29.78;30.59
22018;BME280;11173;51.050;7.108;2022-08-25T16:24:49;99193.78;;;29.85;30.39
22018;BME280;11173;51.050;7.108;2022-08-25T16:29:50;99200.50;;;29.87;31.16
22018;BME280;11173;51.050;7.108;2022-08-25T16:34:51;99182.69;;;29.89;31.32
22018;BME280;11173;51.050;7.108;2022-08-25T16:39:52;99183.84;;;29.86;30.36
22018;BME280;11173;51.050;7.108;2022-08-25T16:44:53;99186.66;;;29.78;30.28
22018;BME280;11173;51.050;7.108;2022-08-25T16:49:54;99187.19;;;29.69;30.72
22018;BME280;11173;51.050;7.108;2022-08-25T16:54:54;99182.56;;;29.58;31.17
22018;BME280;11173;51.050;7.108;2022-08-25T17:00:18;99182.84;;;29.47;30.90
22018;BME280;11173;51.050;7.108;2022-08-25T17:05:21;99185.44;;;29.29;30.76
22018;BME280;11173;51.050;7.108;2022-08-25T17:10:21;99178.84;;;29.13;30.57
22018;BME280;11173;51.050;7.108;2022-08-25T17:15:22;99181.69;;;28.92;30.79
22018;BME280;11173;51.050;7.108;2022-08-25T17:20:26;99180.38;;;28.72;30.72
22018;BME280;11173;51.050;7.108;2022-08-25T17:25:27;99177.88;;;28.48;31.09
22018;BME280;11173;51.050;7.108;2022-08-25T17:30:27;99186.75;;;28.23;31.42
22018;BME280;11173;51.050;7.108;2022-08-25T17:35:28;99190.13;;;28.01;31.33
22018;BME280;11173;51.050;7.108;2022-08-25T17:40:28;99187.84;;;27.86;31.72
22018;BME280;11173;51.050;7.108;2022-08-25T17:45:29;99181.91;;;27.70;31.74
22018;BME280;11173;51.050;7.108;2022-08-25T17:50:29;99196.00;;;27.68;31.83
22018;BME280;11173;51.050;7.108;2022-08-25T17:55:30;99195.69;;;27.72;32.15
22018;BME280;11173;51.050;7.108;2022-08-25T18:00:31;99202.25;;;27.80;31.92
22018;BME280;11173;51.050;7.108;2022-08-25T18:05:36;99198.84;;;27.82;32.05
22018;BME280;11173;51.050;7.108;2022-08-25T18:10:37;99198.09;;;27.68;31.60
22018;BME280;11173;51.050;7.108;2022-08-25T18:15:39;99200.63;;;27.45;31.89
22018;BME280;11173;51.050;7.108;2022-08-25T18:20:43;99200.94;;;27.14;31.84
22018;BME280;11173;51.050;7.108;2022-08-25T18:25:45;99205.91;;;26.82;32.25
22018;BME280;11173;51.050;7.108;2022-08-25T18:30:46;99204.91;;;26.47;32.40
22018;BME280;11173;51.050;7.108;2022-08-25T18:35:47;99198.63;;;26.16;32.60
22018;BME280;11173;51.050;7.108;2022-08-25T18:40:53;99205.22;;;25.86;32.85
22018;BME280;11173;51.050;7.108;2022-08-25T18:45:54;99195.75;;;25.53;33.25
22018;BME280;11173;51.050;7.108;2022-08-25T18:50:55;99208.88;;;25.37;33.19
22018;BME280;11173;51.050;7.108;2022-08-25T18:55:56;99210.06;;;25.23;33.77
22018;BME280;11173;51.050;7.108;2022-08-25T19:00:57;99193.44;;;25.03;33.32
22018;BME280;11173;51.050;7.108;2022-08-25T19:05:58;99217.25;;;25.05;33.86
22018;BME280;11173;51.050;7.108;2022-08-25T19:10:59;99202.28;;;24.99;33.91
22018;BME280;11173;51.050;7.108;2022-08-25T19:16:08;99209.09;;;24.90;34.04
22018;BME280;11173;51.050;7.108;2022-08-25T19:21:09;99218.44;;;24.85;34.05
22018;BME280;11173;51.050;7.108;2022-08-25T19:26:10;99209.72;;;24.72;34.58
22018;BME280;11173;51.050;7.108;2022-08-25T19:31:10;99218.88;;;24.65;34.82
22018;BME280;11173;51.050;7.108;2022-08-25T19:36:11;99214.56;;;24.52;34.94
22018;BME280;11173;51.050;7.108;2022-08-25T19:41:12;99218.41;;;24.55;35.03
22018;BME280;11173;51.050;7.108;2022-08-25T19:46:13;99210.25;;;24.40;35.62
22018;BME280;11173;51.050;7.108;2022-08-25T19:51:14;99201.25;;;24.30;35.72
22018;BME280;11173;51.050;7.108;2022-08-25T19:56:15;99220.13;;;24.33;36.56
22018;BME280;11173;51.050;7.108;2022-08-25T20:01:15;99219.91;;;24.26;36.22
22018;BME280;11173;51.050;7.108;2022-08-25T20:06:16;99221.72;;;24.17;36.87
22018;BME280;11173;51.050;7.108;2022-08-25T20:11:16;99219.75;;;24.07;36.68
22018;BME280;11173;51.050;7.108;2022-08-25T20:16:16;99228.81;;;23.99;36.92
22018;BME280;11173;51.050;7.108;2022-08-25T20:21:17;99224.44;;;23.98;36.90
22018;BME280;11173;51.050;7.108;2022-08-25T20:26:17;99227.09;;;23.85;37.50
22018;BME280;11173;51.050;7.108;2022-08-25T20:31:18;99244.41;;;23.81;37.55
22018;BME280;11173;51.050;7.108;2022-08-25T20:36:18;99247.03;;;23.74;37.69
22018;BME280;11173;51.050;7.108;2022-08-25T20:41:19;99245.75;;;23.69;37.87
22018;BME280;11173;51.050;7.108;2022-08-25T20:46:19;99240.88;;;23.58;38.55
22018;BME280;11173;51.050;7.108;2022-08-25T20:51:20;99245.81;;;23.47;39.03
22018;BME280;11173;51.050;7.108;2022-08-25T20:56:21;99249.69;;;23.38;38.89
22018;BME280;11173;51.050;7.108;2022-08-25T21:01:25;99236.03;;;23.19;39.83
22018;BME280;11173;51.050;7.108;2022-08-25T21:06:48;99238.09;;;23.13;40.30
22018;BME280;11173;51.050;7.108;2022-08-25T21:11:50;99244.59;;;23.02;40.48
22018;BME280;11173;51.050;7.108;2022-08-25T21:16:53;99246.41;;;22.94;41.53
22018;BME280;11173;51.050;7.108;2022-08-25T21:21:53;99241.72;;;22.86;41.35
22018;BME280;11173;51.050;7.108;2022-08-25T21:26:56;99236.81;;;22.80;40.97
22018;BME280;11173;51.050;7.108;2022-08-25T21:31:57;99230.34;;;22.69;41.54
22018;BME280;11173;51.050;7.108;2022-08-25T21:36:58;99236.53;;;22.67;41.55
22018;BME280;11173;51.050;7.108;2022-08-25T21:41:58;99236.78;;;22.58;41.60
22018;BME280;11173;51.050;7.108;2022-08-25T21:46:59;99239.38;;;22.56;41.56
22018;BME280;11173;51.050;7.108;2022-08-25T21:52:00;99240.41;;;22.53;41.77
22018;BME280;11173;51.050;7.108;2022-08-25T21:57:04;99232.13;;;22.49;42.18
22018;BME280;11173;51.050;7.108;2022-08-25T22:02:09;99242.97;;;22.51;42.17
22018;BME280;11173;51.050;7.108;2022-08-25T22:07:10;99229.53;;;22.40;42.01
22018;BME280;11173;51.050;7.108;2022-08-25T22:12:10;99239.38;;;22.44;42.94
22018;BME280;11173;51.050;7.108;2022-08-25T22:17:11;99247.88;;;22.39;42.58
22018;BME280;11173;51.050;7.108;2022-08-25T22:22:11;99242.44;;;22.35;42.89
22018;BME280;11173;51.050;7.108;2022-08-25T22:27:12;99236.72;;;22.24;42.49
22018;BME280;11173;51.050;7.108;2022-08-25T22:32:16;99252.50;;;22.31;43.27
22018;BME280;11173;51.050;7.108;2022-08-25T22:37:16;99236.97;;;22.20;43.89
22018;BME280;11173;51.050;7.108;2022-08-25T22:42:17;99242.16;;;22.28;43.53
22018;BME280;11173;51.050;7.108;2022-08-25T22:47:18;99236.47;;;22.22;43.42
22018;BME280;11173;51.050;7.108;2022-08-25T22:52:19;99241.63;;;22.23;43.41
22018;BME280;11173;51.050;7.108;2022-08-25T22:57:19;99242.66;;;22.26;43.32
22018;BME280;11173;51.050;7.108;2022-08-25T23:02:19;99250.91;;;22.24;43.09
22018;BME280;11173;51.050;7.108;2022-08-25T23:07:20;99250.34;;;22.20;43.01
22018;BME280;11173;51.050;7.108;2022-08-25T23:12:21;99243.88;;;22.08;42.96
22018;BME280;11173;51.050;7.108;2022-08-25T23:17:22;99244.41;;;22.07;42.85
22018;BME280;11173;51.050;7.108;2022-08-25T23:22:23;99237.94;;;22.00;43.01
22018;BME280;11173;51.050;7.108;2022-08-25T23:27:25;99250.09;;;22.07;42.87
22018;BME280;11173;51.050;7.108;2022-08-25T23:32:25;99242.59;;;22.09;42.84
22018;BME280;11173;51.050;7.108;2022-08-25T23:37:26;99227.38;;;22.07;42.49
22018;BME280;11173;51.050;7.108;2022-08-25T23:42:26;99247.53;;;22.20;42.86
22018;BME280;11173;51.050;7.108;2022-08-25T23:47:26;99250.66;;;22.28;42.73
22018;BME280;11173;51.050;7.108;2022-08-25T23:52:27;99242.16;;;22.28;42.50
22018;BME280;11173;51.050;7.108;2022-08-25T23:57:28;99257.94;;;22.46;42.54
